Сообщение об ошибке

  • Warning: ini_set(): Headers already sent. You cannot change the session module's ini settings at this time in drupal_environment_initialize() (line 699 of /home/a/auditpro/2.auditpro.beget.tech/public_html/st/includes/bootstrap.inc).
  • Warning: ini_set(): Headers already sent. You cannot change the session module's ini settings at this time in drupal_environment_initialize() (line 700 of /home/a/auditpro/2.auditpro.beget.tech/public_html/st/includes/bootstrap.inc).
  • Warning: ini_set(): Headers already sent. You cannot change the session module's ini settings at this time in drupal_environment_initialize() (line 701 of /home/a/auditpro/2.auditpro.beget.tech/public_html/st/includes/bootstrap.inc).
  • Warning: ini_set(): Headers already sent. You cannot change the session module's ini settings at this time in drupal_environment_initialize() (line 704 of /home/a/auditpro/2.auditpro.beget.tech/public_html/st/includes/bootstrap.inc).
  • Warning: ini_set(): Headers already sent. You cannot change the session module's ini settings at this time in drupal_environment_initialize() (line 706 of /home/a/auditpro/2.auditpro.beget.tech/public_html/st/includes/bootstrap.inc).
  • Warning: ini_set(): Headers already sent. You cannot change the session module's ini settings at this time in include_once() (line 290 of /home/a/auditpro/2.auditpro.beget.tech/public_html/st/sites/default/settings.php).
  • Warning: ini_set(): Headers already sent. You cannot change the session module's ini settings at this time in include_once() (line 291 of /home/a/auditpro/2.auditpro.beget.tech/public_html/st/sites/default/settings.php).
  • Warning: ini_set(): Headers already sent. You cannot change the session module's ini settings at this time in include_once() (line 299 of /home/a/auditpro/2.auditpro.beget.tech/public_html/st/sites/default/settings.php).
  • Warning: ini_set(): Headers already sent. You cannot change the session module's ini settings at this time in include_once() (line 306 of /home/a/auditpro/2.auditpro.beget.tech/public_html/st/sites/default/settings.php).
  • Warning: ini_set(): Headers already sent. You cannot change the session module's ini settings at this time in drupal_settings_initialize() (line 826 of /home/a/auditpro/2.auditpro.beget.tech/public_html/st/includes/bootstrap.inc).
  • Warning: ini_set(): Headers already sent. You cannot change the session module's ini settings at this time in drupal_settings_initialize() (line 835 of /home/a/auditpro/2.auditpro.beget.tech/public_html/st/includes/bootstrap.inc).
  • Warning: session_name(): Cannot change session name when headers already sent in drupal_settings_initialize() (line 838 of /home/a/auditpro/2.auditpro.beget.tech/public_html/st/includes/bootstrap.inc).

Белая

СКИДКИ НА СМАРТФОНЫ!

Карта отелей и гостиниц, располагающихся рядом с аэропортом Белая :

Белая Курская область 51° 4' 3.0612" N, 35° 43' 37.1388" E
Белая Курская область 51° 4' 3.0612" N, 35° 43' 37.1388" E
Код аэродрома ИКАО
HA0E
Код аэродрома RU
ХА0Е
Координаты
N51.06752° E035.72698°
Превышение над уровнем моря
152
Основная полоса
04/22
Курс магнитный
035,9/215,9
Длина основной ВПП
1025
Ширина основной ВПП
60
Покрытие основной ВПП
Нетвёрдое (грунт)
Освещение ВПП
Нет
Тип: 
Аэродром
Класс аэродрома: 
Принадлежность: 
ГА
Статус: 
Недействующий
Сайт: 
E-mail аэродрома: 
Страна: 
Россия
Регион: 
Курская область
Город: 
Дополнительная информация: 

Скидки на навигаторы!

Найти трансфер

С помощью этой формы Вы можете найти трансфер из аэропорта Белая в город, аэропорт или вокзал:

Погода в аэропортах:

Авиационная погода в Усть-Каменогорске

Регион: 
Погода METAR: 
UASK 302000Z 02001MPS 0800 R12/1900 FZFG SCT002 M27/M30 Q1028 NOSIG RMK QBB080 QFE745/0994
Время наблюдения
2023-01-30T20:00:00Z
Температура C
-27.0
Точка росы
-30.0
Направление ветра
20
Скорость ветра (узлы)
2
Метео видимость
0.5
Облачность
SCT
Нижняя граница облачности (футы)
200
Явления погоды
FZFG
Условия полета
LIFR
Аэропорт подробнее: 
SCT – разбросанная отдельная облачность;
FZFG - переохлаждённый туман;

Авиационная погода в Иркутске

Регион: 
Погода METAR: 
UIII 301930Z 29004MPS 7000 -SHSN OVC050CB M10/M12 Q1022 RESHSN R30/490237 NOSIG RMK QFE722/0962
Время наблюдения
2023-01-30T19:30:00Z
Температура C
-10.0
Точка росы
-12.0
Направление ветра
290
Скорость ветра (узлы)
8
Метео видимость
4.35
Облачность
OVC
Нижняя граница облачности (футы)
5000
Явления погоды
-SHSN
Условия полета
MVFR
Аэропорт подробнее: 
OVC – сплошная облачность;
-SHSN - слабый ливневой снег;

Авиационная погода в Ханты-Мансийске

Регион: 
Погода METAR: 
USHH 301930Z 17003MPS 9999 -SN SCT043 M09/M10 Q1013 R24/390036 NOSIG
Время наблюдения
2023-01-30T19:30:00Z
Температура C
-9.0
Точка росы
-10.0
Направление ветра
170
Скорость ветра (узлы)
6
Метео видимость
6.21
Облачность
SCT
Нижняя граница облачности (футы)
4300
Явления погоды
-SN
Условия полета
VFR
Аэропорт подробнее: 
SCT – разбросанная отдельная облачность;
-SN – слабый снег;

Авиационная погода в Платове

Регион: 
Погода METAR: 
URRP 301930Z 13003MPS 4100 BR SCT045 02/02 Q1011 R23/CLRD70 NOSIG RMK QFE751/1001
Время наблюдения
2023-01-30T19:30:00Z
Температура C
2.0
Точка росы
2.0
Направление ветра
130
Скорость ветра (узлы)
6
Метео видимость
2.55
Облачность
SCT
Нижняя граница облачности (футы)
4500
Явления погоды
BR
Условия полета
IFR
Аэропорт подробнее: 
SCT – разбросанная отдельная облачность;
BR – дымка (видимость от 1 до 9 км);